Time;durP1;ratioP1;P1;durP2;ratioP2;P2;SDS_P1;SDS_P2;PMS_P1;PMS_P2;Temp;Humidity;BMP_temperature;BMP_pressure;BME280_temperature;BME280_humidity;BME280_pressure;Samples;Min_cycle;Max_cycle;Signal;HPM_P1;HPM_P2
2023/06/17 00:01:34;;;;;;;4.80;4.30;;;;;;;;;;5018310;28;20240;-28
2023/06/17 00:04:02;;;;;;;4.47;3.77;;;;;;;;;;5025756;28;20217;-30
2023/06/17 00:06:29;;;;;;;4.30;3.90;;;;;;;;;;5027531;28;20264;-28
2023/06/17 00:08:59;;;;;;;4.30;3.90;;;;;;;;;;5013390;28;20230;-25
2023/06/17 00:11:28;;;;;;;4.00;3.40;;;;;;;;;;5013496;28;20294;-26
2023/06/17 00:13:56;;;;;;;4.23;3.80;;;;;;;;;;5018623;28;20202;-26
2023/06/17 00:16:23;;;;;;;7.00;3.77;;;;;;;;;;5022807;28;20207;-24
2023/06/17 00:18:53;;;;;;;4.47;4.07;;;;;;;;;;5016543;28;20225;-26
2023/06/17 00:21:20;;;;;;;4.17;3.80;;;;;;;;;;5019066;28;20223;-28
2023/06/17 00:23:47;;;;;;;4.87;3.40;;;;;;;;;;5008895;28;20203;-28
2023/06/17 00:26:15;;;;;;;4.43;4.03;;;;;;;;;;5018624;28;20214;-25
2023/06/17 00:28:42;;;;;;;4.60;3.70;;;;;;;;;;5018335;28;20230;-26
2023/06/17 00:31:10;;;;;;;4.50;3.47;;;;;;;;;;5011264;28;20205;-26
2023/06/17 00:33:37;;;;;;;3.70;3.40;;;;;;;;;;5015563;28;20207;-26
2023/06/17 00:36:04;;;;;;;3.93;3.53;;;;;;;;;;5013162;28;20199;-28
2023/06/17 00:38:31;;;;;;;4.10;3.13;;;;;;;;;;5007176;28;20237;-25
2023/06/17 00:40:58;;;;;;;3.90;3.50;;;;;;;;;;5015620;28;20227;-28
2023/06/17 00:43:26;;;;;;;5.97;3.70;;;;;;;;;;5023026;28;20202;-27
2023/06/17 00:45:54;;;;;;;4.47;3.67;;;;;;;;;;5025748;28;20685;-25
2023/06/17 00:48:21;;;;;;;4.77;3.53;;;;;;;;;;5010337;28;20230;-25
2023/06/17 00:50:49;;;;;;;4.67;3.57;;;;;;;;;;5017318;28;20290;-28
2023/06/17 00:53:17;;;;;;;3.90;3.60;;;;;;;;;;5007162;28;20688;-27
2023/06/17 00:55:44;;;;;;;4.67;3.80;;;;;;;;;;5015127;28;20206;-25
2023/06/17 00:58:12;;;;;;;5.17;3.83;;;;;;;;;;5012420;28;20209;-26
2023/06/17 01:00:40;;;;;;;6.00;3.60;;;;;;;;;;5025604;28;20256;-29
2023/06/17 01:03:09;;;;;;;3.63;3.33;;;;;;;;;;5026330;28;20430;-25
2023/06/17 01:05:37;;;;;;;3.60;3.30;;;;;;;;;;5008132;28;20223;-28
2023/06/17 01:08:12;;;;;;;3.93;3.53;;;;;;;;;;5006095;28;20203;-29
2023/06/17 01:10:43;;;;;;;4.33;3.90;;;;;;;;;;5019086;28;20203;-27
2023/06/17 01:13:12;;;;;;;5.53;3.63;;;;;;;;;;5025438;28;20429;-26
2023/06/17 01:15:40;;;;;;;3.87;3.57;;;;;;;;;;5008952;28;20301;-28
2023/06/17 01:18:08;;;;;;;3.90;3.53;;;;;;;;;;5022583;28;20210;-28
2023/06/17 01:20:35;;;;;;;3.90;3.60;;;;;;;;;;5017780;28;20232;-27
2023/06/17 01:23:03;;;;;;;3.60;3.10;;;;;;;;;;5029896;28;20206;-27
2023/06/17 01:25:32;;;;;;;3.60;3.30;;;;;;;;;;5013065;28;20216;-27
2023/06/17 01:28:00;;;;;;;3.80;3.47;;;;;;;;;;5018097;28;20199;-30
2023/06/17 01:30:30;;;;;;;5.80;3.53;;;;;;;;;;5026728;28;20289;-28
2023/06/17 01:32:58;;;;;;;4.17;3.83;;;;;;;;;;5021344;28;20206;-27
2023/06/17 01:35:27;;;;;;;3.90;3.60;;;;;;;;;;5016798;28;20203;-27
2023/06/17 01:37:55;;;;;;;4.10;3.50;;;;;;;;;;5013286;28;20202;-25
2023/06/17 01:40:23;;;;;;;3.37;3.07;;;;;;;;;;5018458;28;20225;-28
2023/06/17 01:42:53;;;;;;;4.20;3.70;;;;;;;;;;5008922;28;20298;-27
2023/06/17 01:45:21;;;;;;;4.83;3.40;;;;;;;;;;5026155;28;20582;-28
2023/06/17 01:47:48;;;;;;;5.03;3.30;;;;;;;;;;5015891;28;20220;-26
2023/06/17 01:50:18;;;;;;;4.27;3.87;;;;;;;;;;5011059;28;20252;-25
2023/06/17 01:52:45;;;;;;;5.10;4.10;;;;;;;;;;5015651;28;20205;-28
2023/06/17 01:55:13;;;;;;;3.83;3.53;;;;;;;;;;5005971;28;20206;-26
2023/06/17 01:57:40;;;;;;;5.00;3.63;;;;;;;;;;5022119;28;20217;-27
2023/06/17 02:00:12;;;;;;;5.73;3.60;;;;;;;;;;5026978;28;20225;-26
2023/06/17 02:02:39;;;;;;;4.27;3.47;;;;;;;;;;5020735;28;20727;-28
2023/06/17 02:05:07;;;;;;;4.50;4.10;;;;;;;;;;5009722;28;20750;-29
2023/06/17 02:07:34;;;;;;;4.17;3.57;;;;;;;;;;5022191;28;20219;-26
2023/06/17 02:10:03;;;;;;;3.87;3.33;;;;;;;;;;5017662;28;20225;-29
2023/06/17 02:12:30;;;;;;;3.87;3.47;;;;;;;;;;5021225;28;20296;-29
2023/06/17 02:14:58;;;;;;;4.23;3.73;;;;;;;;;;5005668;28;20570;-27
2023/06/17 02:17:27;;;;;;;3.80;3.50;;;;;;;;;;5014538;28;20209;-28
2023/06/17 02:19:54;;;;;;;3.73;3.43;;;;;;;;;;5022248;28;20580;-27
2023/06/17 02:22:22;;;;;;;3.53;3.23;;;;;;;;;;5010448;28;20217;-27
2023/06/17 02:24:49;;;;;;;5.10;3.73;;;;;;;;;;5012786;28;20223;-28
2023/06/17 02:27:17;;;;;;;4.20;3.80;;;;;;;;;;5015248;28;20235;-27
2023/06/17 02:29:44;;;;;;;4.57;4.00;;;;;;;;;;5007936;28;20235;-27
2023/06/17 02:32:12;;;;;;;4.00;3.60;;;;;;;;;;5007947;28;20205;-29
2023/06/17 02:34:42;;;;;;;4.30;3.63;;;;;;;;;;5017302;28;20209;-25
2023/06/17 02:37:09;;;;;;;5.57;3.80;;;;;;;;;;5017998;28;20457;-25
2023/06/17 02:39:37;;;;;;;3.93;3.57;;;;;;;;;;5021893;28;20315;-27
2023/06/17 02:42:04;;;;;;;6.73;3.50;;;;;;;;;;5017302;28;20224;-25
2023/06/17 02:44:32;;;;;;;4.40;4.00;;;;;;;;;;5025570;28;20200;-28
2023/06/17 02:46:59;;;;;;;4.40;3.63;;;;;;;;;;5024888;28;20207;-27
2023/06/17 02:49:26;;;;;;;4.33;3.93;;;;;;;;;;5007295;28;20236;-25
2023/06/17 02:51:55;;;;;;;5.07;3.97;;;;;;;;;;5021178;28;20340;-25
2023/06/17 02:54:22;;;;;;;4.07;3.60;;;;;;;;;;5006227;28;20307;-26
2023/06/17 02:56:49;;;;;;;4.80;4.20;;;;;;;;;;5014457;28;20221;-25
2023/06/17 02:59:16;;;;;;;4.67;4.17;;;;;;;;;;5016796;28;20224;-28
2023/06/17 03:01:44;;;;;;;6.57;3.83;;;;;;;;;;5024973;28;20323;-27
2023/06/17 03:04:11;;;;;;;3.80;3.50;;;;;;;;;;5009249;28;20210;-27
2023/06/17 03:06:40;;;;;;;4.00;3.60;;;;;;;;;;5013253;28;20401;-28
2023/06/17 03:09:09;;;;;;;3.77;3.40;;;;;;;;;;5008767;28;20533;-27
2023/06/17 03:11:36;;;;;;;4.37;3.60;;;;;;;;;;5023052;28;20204;-27
2023/06/17 03:14:04;;;;;;;4.47;3.40;;;;;;;;;;5029271;28;20208;-25
2023/06/17 03:16:33;;;;;;;4.00;3.60;;;;;;;;;;5028224;28;20213;-27
2023/06/17 03:19:00;;;;;;;3.63;3.37;;;;;;;;;;5013751;28;20236;-27
2023/06/17 03:21:29;;;;;;;4.63;3.90;;;;;;;;;;5009253;28;20258;-26
2023/06/17 03:23:56;;;;;;;4.27;3.90;;;;;;;;;;5020367;28;20277;-28
2023/06/17 03:26:25;;;;;;;4.57;3.90;;;;;;;;;;5014046;28;20205;-26
2023/06/17 03:28:53;;;;;;;6.07;3.70;;;;;;;;;;5017315;28;20256;-25
2023/06/17 03:31:21;;;;;;;4.10;3.70;;;;;;;;;;5024490;28;20215;-27
2023/06/17 03:33:49;;;;;;;5.10;3.80;;;;;;;;;;5015052;28;20212;-27
2023/06/17 03:36:17;;;;;;;4.27;3.53;;;;;;;;;;5025592;28;20232;-27
2023/06/17 03:38:44;;;;;;;5.73;4.30;;;;;;;;;;5018901;28;20589;-25
2023/06/17 03:41:11;;;;;;;4.30;3.90;;;;;;;;;;5023477;28;20290;-27
2023/06/17 03:43:40;;;;;;;4.87;4.20;;;;;;;;;;5030764;28;20204;-25
2023/06/17 03:46:07;;;;;;;5.53;3.73;;;;;;;;;;5031395;28;20203;-27
2023/06/17 03:48:34;;;;;;;6.47;3.33;;;;;;;;;;5025134;28;20223;-26
2023/06/17 03:51:02;;;;;;;4.03;3.67;;;;;;;;;;5019710;28;20211;-25
2023/06/17 03:53:29;;;;;;;4.60;4.20;;;;;;;;;;5028099;28;20205;-24
2023/06/17 03:55:57;;;;;;;4.23;3.83;;;;;;;;;;5026174;28;20203;-26
2023/06/17 03:58:24;;;;;;;4.37;3.97;;;;;;;;;;5024853;28;20220;-26
2023/06/17 04:00:53;;;;;;;4.93;3.97;;;;;;;;;;5032673;28;20207;-27
2023/06/17 04:03:24;;;;;;;5.03;4.23;;;;;;;;;;5026098;28;20199;-26
2023/06/17 04:05:52;;;;;;;3.70;3.40;;;;;;;;;;5014847;28;20589;-27
2023/06/17 04:08:19;;;;;;;3.90;3.50;;;;;;;;;;5026256;28;20219;-27
2023/06/17 04:10:47;;;;;;;4.00;3.60;;;;;;;;;;5022384;28;20231;-25
2023/06/17 04:13:15;;;;;;;3.47;3.17;;;;;;;;;;5017052;28;20204;-26
2023/06/17 04:15:42;;;;;;;4.30;3.37;;;;;;;;;;5021714;28;20209;-25
2023/06/17 04:18:10;;;;;;;5.33;4.00;;;;;;;;;;5025136;28;20201;-26
2023/06/17 04:20:44;;;;;;;5.07;4.07;;;;;;;;;;5020335;28;20315;-25
2023/06/17 04:23:11;;;;;;;4.23;3.80;;;;;;;;;;5014790;28;20263;-25
2023/06/17 04:25:38;;;;;;;4.33;4.03;;;;;;;;;;5020315;28;20203;-27
2023/06/17 04:28:12;;;;;;;4.37;3.90;;;;;;;;;;5020307;28;20222;-26
2023/06/17 04:30:52;;;;;;;4.33;3.67;;;;;;;;;;5010851;28;20217;-25
2023/06/17 04:33:24;;;;;;;3.93;3.53;;;;;;;;;;5009438;28;20564;-25
2023/06/17 04:35:51;;;;;;;4.27;3.87;;;;;;;;;;5018958;28;20197;-24
2023/06/17 04:38:20;;;;;;;4.50;4.10;;;;;;;;;;5011905;28;20315;-25
2023/06/17 04:40:47;;;;;;;4.80;3.90;;;;;;;;;;5019620;28;20211;-27
2023/06/17 04:43:14;;;;;;;4.37;3.97;;;;;;;;;;5020166;28;20220;-26
2023/06/17 04:45:41;;;;;;;7.03;4.60;;;;;;;;;;5026634;28;20215;-28
2023/06/17 04:48:09;;;;;;;4.87;4.37;;;;;;;;;;5016383;28;20236;-25
2023/06/17 04:50:37;;;;;;;5.37;4.30;;;;;;;;;;5022591;28;20203;-27
2023/06/17 04:53:04;;;;;;;4.53;4.13;;;;;;;;;;5026657;28;20208;-26
2023/06/17 04:55:35;;;;;;;4.23;3.83;;;;;;;;;;5017845;28;20637;-23
2023/06/17 04:58:02;;;;;;;7.03;4.13;;;;;;;;;;5021335;28;20281;-26
2023/06/17 05:00:29;;;;;;;4.30;3.90;;;;;;;;;;5027707;28;20199;-24
2023/06/17 05:02:56;;;;;;;5.47;4.00;;;;;;;;;;5013141;28;20234;-26
2023/06/17 05:05:23;;;;;;;4.60;4.20;;;;;;;;;;5015398;28;20212;-24
2023/06/17 05:07:52;;;;;;;5.87;4.37;;;;;;;;;;5007430;28;20219;-25
2023/06/17 05:10:19;;;;;;;5.33;4.60;;;;;;;;;;5013323;28;20231;-26
2023/06/17 05:12:46;;;;;;;4.87;4.47;;;;;;;;;;5018260;28;20205;-28
2023/06/17 05:15:13;;;;;;;6.37;4.50;;;;;;;;;;5009915;28;20681;-27
2023/06/17 05:17:40;;;;;;;4.80;4.30;;;;;;;;;;5025699;28;20213;-25
2023/06/17 05:20:08;;;;;;;5.53;4.50;;;;;;;;;;5013717;28;20228;-24
2023/06/17 05:22:35;;;;;;;5.37;4.37;;;;;;;;;;5017525;28;20324;-25
2023/06/17 05:25:03;;;;;;;5.13;4.63;;;;;;;;;;5017041;28;20210;-27
2023/06/17 05:27:30;;;;;;;4.67;4.27;;;;;;;;;;5017729;28;20204;-25
2023/06/17 05:29:57;;;;;;;5.90;4.07;;;;;;;;;;5029208;28;20316;-27
2023/06/17 05:32:26;;;;;;;5.37;4.87;;;;;;;;;;5023849;28;20203;-23
2023/06/17 05:34:53;;;;;;;4.97;4.17;;;;;;;;;;5023748;28;20208;-28
2023/06/17 05:37:20;;;;;;;4.40;4.00;;;;;;;;;;5008771;28;20199;-25
2023/06/17 05:39:47;;;;;;;7.30;4.83;;;;;;;;;;5010568;28;20228;-27
2023/06/17 05:42:16;;;;;;;5.00;4.07;;;;;;;;;;5028414;28;20229;-25
2023/06/17 05:44:43;;;;;;;5.03;4.53;;;;;;;;;;5014574;28;20897;-23
2023/06/17 05:47:10;;;;;;;4.53;4.13;;;;;;;;;;5030031;28;20433;-27
2023/06/17 05:49:39;;;;;;;4.93;4.50;;;;;;;;;;5020571;28;20236;-25
2023/06/17 05:52:07;;;;;;;5.33;4.83;;;;;;;;;;5017133;28;20195;-25
2023/06/17 05:54:34;;;;;;;4.93;4.50;;;;;;;;;;5008980;28;20234;-26
2023/06/17 05:57:01;;;;;;;6.10;4.90;;;;;;;;;;5011162;28;20213;-26
2023/06/17 05:59:30;;;;;;;5.07;4.57;;;;;;;;;;5022413;28;20237;-25
2023/06/17 06:01:58;;;;;;;4.73;4.33;;;;;;;;;;5026751;28;20606;-25
2023/06/17 06:04:25;;;;;;;5.47;4.63;;;;;;;;;;5019135;28;20203;-27
2023/06/17 06:06:52;;;;;;;5.43;4.93;;;;;;;;;;5027310;28;20887;-25
2023/06/17 06:09:19;;;;;;;7.70;4.80;;;;;;;;;;5018230;28;20223;-25
2023/06/17 06:11:46;;;;;;;13.40;4.97;;;;;;;;;;5019873;28;20213;-27
2023/06/17 06:14:14;;;;;;;6.37;5.10;;;;;;;;;;5028751;28;20327;-27
2023/06/17 06:16:42;;;;;;;5.57;4.97;;;;;;;;;;5026118;28;20206;-26
2023/06/17 06:19:09;;;;;;;7.27;5.00;;;;;;;;;;5016366;28;20222;-25
2023/06/17 06:21:36;;;;;;;6.67;5.17;;;;;;;;;;5025475;28;20198;-26
2023/06/17 06:24:03;;;;;;;6.80;4.63;;;;;;;;;;5014280;28;20207;-25
2023/06/17 06:26:31;;;;;;;5.20;4.70;;;;;;;;;;5015544;28;20202;-26
2023/06/17 06:28:58;;;;;;;4.90;4.43;;;;;;;;;;5011729;28;20219;-24
2023/06/17 06:31:25;;;;;;;5.30;4.77;;;;;;;;;;5013333;28;20211;-25
2023/06/17 06:33:54;;;;;;;5.33;4.40;;;;;;;;;;5017869;28;20234;-26
2023/06/17 06:36:21;;;;;;;4.73;4.23;;;;;;;;;;5015016;28;20206;-25
2023/06/17 06:38:48;;;;;;;8.23;5.15;;;;;;;;;;5022894;28;20234;-25
2023/06/17 06:41:15;;;;;;;5.95;5.00;;;;;;;;;;5023125;28;20776;-25
2023/06/17 06:43:42;;;;;;;5.05;4.55;;;;;;;;;;5021487;28;20223;-26
2023/06/17 06:46:09;;;;;;;5.78;4.93;;;;;;;;;;5008773;28;20211;-28
2023/06/17 06:48:36;;;;;;;4.95;4.55;;;;;;;;;;5029521;28;20234;-28
2023/06/17 06:51:05;;;;;;;4.82;4.32;;;;;;;;;;5021031;28;20206;-26
2023/06/17 06:53:32;;;;;;;9.68;4.82;;;;;;;;;;5010248;28;20805;-26
2023/06/17 06:55:59;;;;;;;5.88;5.28;;;;;;;;;;5020187;28;20206;-26
2023/06/17 06:58:29;;;;;;;5.78;5.18;;;;;;;;;;5027177;28;20214;-26
2023/06/17 07:00:56;;;;;;;8.18;4.80;;;;;;;;;;5028774;28;20741;-27
2023/06/17 07:03:23;;;;;;;5.63;4.97;;;;;;;;;;5027881;28;20220;-27
2023/06/17 07:05:50;;;;;;;5.95;5.00;;;;;;;;;;5032382;28;20682;-29
2023/06/17 07:08:19;;;;;;;5.35;4.57;;;;;;;;;;5028736;28;20224;-27
2023/06/17 07:10:46;;;;;;;6.35;4.63;;;;;;;;;;5027429;28;20220;-26
2023/06/17 07:13:13;;;;;;;5.22;4.60;;;;;;;;;;5031850;28;20198;-26
2023/06/17 07:15:40;;;;;;;5.90;4.53;;;;;;;;;;5033149;28;20281;-26
2023/06/17 07:18:07;;;;;;;6.18;4.60;;;;;;;;;;5021481;28;20205;-28
2023/06/17 07:20:34;;;;;;;5.32;4.35;;;;;;;;;;5033501;28;20217;-25
2023/06/17 07:23:01;;;;;;;5.18;4.75;;;;;;;;;;5020309;28;20226;-29
2023/06/17 07:25:30;;;;;;;5.97;4.30;;;;;;;;;;5015790;28;20220;-25
2023/06/17 07:27:59;;;;;;;4.88;4.47;;;;;;;;;;5020580;28;20201;-26
2023/06/17 07:30:26;;;;;;;4.85;4.38;;;;;;;;;;5013967;28;20242;-26
2023/06/17 07:32:54;;;;;;;4.60;4.20;;;;;;;;;;5014188;28;20216;-24
2023/06/17 07:35:21;;;;;;;5.38;4.13;;;;;;;;;;5021713;28;20211;-27
2023/06/17 07:37:48;;;;;;;4.18;3.78;;;;;;;;;;5011892;28;20216;-30
2023/06/17 07:40:16;;;;;;;5.05;4.30;;;;;;;;;;5023991;28;20236;-25
2023/06/17 07:42:44;;;;;;;9.85;4.70;;;;;;;;;;5029295;28;20220;-25
2023/06/17 07:45:12;;;;;;;5.40;4.47;;;;;;;;;;5024469;28;20206;-26
2023/06/17 07:47:45;;;;;;;4.53;4.13;;;;;;;;;;5017802;28;20201;-23
2023/06/17 07:50:12;;;;;;;6.00;4.50;;;;;;;;;;5021722;28;20227;-24
2023/06/17 07:52:39;;;;;;;6.93;5.13;;;;;;;;;;5022034;28;20205;-25
2023/06/17 07:55:08;;;;;;;5.93;3.95;;;;;;;;;;5009950;28;20210;-25
2023/06/17 07:57:35;;;;;;;4.22;3.83;;;;;;;;;;5021332;28;20494;-28
2023/06/17 08:00:09;;;;;;;5.60;4.32;;;;;;;;;;5013307;28;20233;-28
2023/06/17 08:02:36;;;;;;;4.95;3.95;;;;;;;;;;5013108;28;20220;-23
2023/06/17 08:05:03;;;;;;;4.53;3.97;;;;;;;;;;5028837;28;20275;-28
2023/06/17 08:07:30;;;;;;;4.20;3.80;;;;;;;;;;5024482;28;20391;-29
2023/06/17 08:09:57;;;;;;;7.88;4.50;;;;;;;;;;5015679;28;20251;-27
2023/06/17 08:12:24;;;;;;;4.70;4.30;;;;;;;;;;5020465;28;20206;-27
2023/06/17 08:14:51;;;;;;;5.80;4.53;;;;;;;;;;5012383;28;20226;-24
2023/06/17 08:17:20;;;;;;;4.30;3.90;;;;;;;;;;5015265;28;20222;-28
2023/06/17 08:19:50;;;;;;;5.43;4.07;;;;;;;;;;5018595;28;20232;-25
2023/06/17 08:22:18;;;;;;;6.28;4.43;;;;;;;;;;5016444;28;20198;-25
2023/06/17 08:24:45;;;;;;;5.35;4.07;;;;;;;;;;5025111;28;20218;-26
2023/06/17 08:27:12;;;;;;;6.88;3.70;;;;;;;;;;5014585;28;20198;-26
2023/06/17 08:29:39;;;;;;;6.95;4.03;;;;;;;;;;5010361;28;20229;-30
2023/06/17 08:32:07;;;;;;;7.63;4.00;;;;;;;;;;5023313;28;20214;-26
2023/06/17 08:34:36;;;;;;;6.95;3.85;;;;;;;;;;5011638;28;20297;-25
2023/06/17 08:37:04;;;;;;;4.45;3.70;;;;;;;;;;5014166;28;20213;-25
2023/06/17 08:39:31;;;;;;;5.63;4.18;;;;;;;;;;5012763;28;20226;-27
2023/06/17 08:41:58;;;;;;;4.63;4.13;;;;;;;;;;5010097;28;20198;-27
2023/06/17 08:44:27;;;;;;;6.93;4.22;;;;;;;;;;5018174;28;20228;-28
2023/06/17 08:46:55;;;;;;;4.63;3.97;;;;;;;;;;5009208;28;20349;-27
2023/06/17 08:49:23;;;;;;;4.80;4.30;;;;;;;;;;5014732;28;20233;-27
2023/06/17 08:51:52;;;;;;;4.72;4.32;;;;;;;;;;5029264;28;20201;-27
2023/06/17 08:54:21;;;;;;;6.97;3.80;;;;;;;;;;5019516;28;20220;-26
2023/06/17 08:56:48;;;;;;;4.97;4.13;;;;;;;;;;5025234;28;20250;-26
2023/06/17 08:59:15;;;;;;;5.82;4.57;;;;;;;;;;5030405;28;20218;-28
2023/06/17 09:01:43;;;;;;;7.90;3.90;;;;;;;;;;5031001;28;20206;-27
2023/06/17 09:04:11;;;;;;;4.40;3.67;;;;;;;;;;5028011;28;20236;-27
2023/06/17 09:06:38;;;;;;;5.05;3.78;;;;;;;;;;5026278;28;20214;-26
2023/06/17 09:09:07;;;;;;;5.88;3.88;;;;;;;;;;5023033;28;20225;-25
2023/06/17 09:11:34;;;;;;;5.30;3.83;;;;;;;;;;5026271;28;20202;-26
2023/06/17 09:14:02;;;;;;;6.15;3.85;;;;;;;;;;5023026;28;20207;-29
2023/06/17 09:16:30;;;;;;;8.93;3.38;;;;;;;;;;5024676;28;20233;-27
2023/06/17 09:18:58;;;;;;;5.38;2.92;;;;;;;;;;5017184;28;20233;-28
2023/06/17 09:21:26;;;;;;;3.05;2.85;;;;;;;;;;5024340;28;20250;-29
2023/06/17 09:23:54;;;;;;;3.25;2.92;;;;;;;;;;5017978;28;20236;-27
2023/06/17 09:26:23;;;;;;;3.67;3.28;;;;;;;;;;5019781;28;20210;-26
2023/06/17 09:28:51;;;;;;;7.22;3.28;;;;;;;;;;5018606;28;20230;-26
2023/06/17 09:31:18;;;;;;;6.45;3.50;;;;;;;;;;5015506;28;20202;-28
2023/06/17 09:33:47;;;;;;;5.78;3.22;;;;;;;;;;5023596;28;20265;-25
2023/06/17 09:36:14;;;;;;;3.47;3.17;;;;;;;;;;5020091;28;20216;-29
2023/06/17 09:38:42;;;;;;;3.47;3.05;;;;;;;;;;5017208;28;20244;-26
2023/06/17 09:41:14;;;;;;;3.55;3.25;;;;;;;;;;5023933;28;20207;-29
2023/06/17 09:43:42;;;;;;;4.28;3.38;;;;;;;;;;5026222;28;20229;-27
2023/06/17 09:46:11;;;;;;;7.72;3.67;;;;;;;;;;5026937;28;20202;-27
2023/06/17 09:48:39;;;;;;;4.13;3.28;;;;;;;;;;5011394;28;20230;-26
2023/06/17 09:51:09;;;;;;;4.18;3.10;;;;;;;;;;5016973;28;20201;-26
2023/06/17 09:53:36;;;;;;;2.92;2.72;;;;;;;;;;5008329;28;20207;-30
2023/06/17 09:56:04;;;;;;;4.85;3.50;;;;;;;;;;5015148;28;20207;-27
2023/06/17 09:58:32;;;;;;;5.70;3.28;;;;;;;;;;5012853;28;20230;-26
2023/06/17 10:01:05;;;;;;;4.93;3.88;;;;;;;;;;5008965;28;20238;-28
2023/06/17 10:03:33;;;;;;;5.00;3.90;;;;;;;;;;5011688;28;20252;-28
2023/06/17 10:06:03;;;;;;;5.85;3.15;;;;;;;;;;5008901;28;20217;-27
2023/06/17 10:08:31;;;;;;;4.70;3.58;;;;;;;;;;5020982;28;20225;-29
2023/06/17 10:10:59;;;;;;;4.05;3.40;;;;;;;;;;5013151;28;20206;-27
2023/06/17 10:13:27;;;;;;;4.57;3.25;;;;;;;;;;5008815;28;20201;-26
2023/06/17 10:15:55;;;;;;;4.05;3.63;;;;;;;;;;5009700;28;20865;-27
2023/06/17 10:18:24;;;;;;;4.65;3.10;;;;;;;;;;5017345;28;20236;-27
2023/06/17 10:20:52;;;;;;;6.35;3.75;;;;;;;;;;5016176;28;20213;-25
2023/06/17 10:23:21;;;;;;;3.50;3.20;;;;;;;;;;5031208;28;20236;-28
2023/06/17 10:25:48;;;;;;;4.28;3.65;;;;;;;;;;5016045;28;20267;-28
2023/06/17 10:28:16;;;;;;;4.35;3.50;;;;;;;;;;5012242;28;20198;-25
2023/06/17 10:30:45;;;;;;;8.20;3.90;;;;;;;;;;5013709;28;20503;-26
2023/06/17 10:33:13;;;;;;;4.03;3.67;;;;;;;;;;5022595;28;20197;-25
2023/06/17 10:35:43;;;;;;;5.00;3.58;;;;;;;;;;5028939;28;20200;-24
2023/06/17 10:38:10;;;;;;;4.78;3.58;;;;;;;;;;5030346;28;20236;-24
2023/06/17 10:40:41;;;;;;;5.53;3.80;;;;;;;;;;5022156;28;20243;-28
2023/06/17 10:43:18;;;;;;;3.95;3.58;;;;;;;;;;5031874;28;20281;-24
2023/06/17 10:45:52;;;;;;;4.43;3.92;;;;;;;;;;5032551;28;20211;-25
2023/06/17 10:48:24;;;;;;;4.53;3.63;;;;;;;;;;5016195;28;20228;-27
2023/06/17 10:50:56;;;;;;;4.38;3.97;;;;;;;;;;5023666;28;20254;-26
2023/06/17 10:53:29;;;;;;;6.85;4.45;;;;;;;;;;5013096;28;20232;-24
2023/06/17 10:55:57;;;;;;;5.63;3.83;;;;;;;;;;5025517;28;20222;-28
2023/06/17 10:58:24;;;;;;;5.72;3.90;;;;;;;;;;5019721;28;20225;-27
2023/06/17 11:01:04;;;;;;;5.07;3.75;;;;;;;;;;5029205;28;20209;-25
2023/06/17 11:03:31;;;;;;;4.43;4.03;;;;;;;;;;5022406;28;20224;-26
2023/06/17 11:06:00;;;;;;;5.82;4.28;;;;;;;;;;5023224;28;20205;-27
2023/06/17 11:08:28;;;;;;;4.10;3.67;;;;;;;;;;5026153;28;20233;-27
2023/06/17 11:11:06;;;;;;;4.25;3.72;;;;;;;;;;5017737;28;20211;-27
2023/06/17 11:13:33;;;;;;;4.63;3.75;;;;;;;;;;5021381;28;20201;-24
2023/06/17 11:16:03;;;;;;;5.70;3.80;;;;;;;;;;5022479;28;20201;-27
2023/06/17 11:18:31;;;;;;;4.22;3.83;;;;;;;;;;5026613;28;20222;-27
2023/06/17 11:20:58;;;;;;;7.50;4.20;;;;;;;;;;5014070;28;20210;-25
2023/06/17 11:23:28;;;;;;;4.60;3.30;;;;;;;;;;5020645;28;20239;-27
2023/06/17 11:25:56;;;;;;;4.07;3.67;;;;;;;;;;5022907;28;20204;-28
2023/06/17 11:28:23;;;;;;;3.83;3.40;;;;;;;;;;5024452;28;20222;-25
2023/06/17 11:30:50;;;;;;;4.10;3.70;;;;;;;;;;5015496;28;20209;-23
2023/06/17 11:33:20;;;;;;;4.20;3.65;;;;;;;;;;5024539;28;20217;-26
2023/06/17 11:35:47;;;;;;;5.03;3.47;;;;;;;;;;5019254;28;20224;-24
2023/06/17 11:38:14;;;;;;;4.22;3.83;;;;;;;;;;5032265;28;20776;-24
2023/06/17 11:40:43;;;;;;;4.47;3.80;;;;;;;;;;5026097;28;20299;-27
2023/06/17 11:43:11;;;;;;;3.95;3.63;;;;;;;;;;5019945;28;20295;-28
2023/06/17 11:45:38;;;;;;;4.95;3.67;;;;;;;;;;5034651;28;20598;-26
2023/06/17 11:48:06;;;;;;;5.13;3.80;;;;;;;;;;5017593;28;20209;-25
2023/06/17 11:50:33;;;;;;;4.05;3.67;;;;;;;;;;5017481;28;20915;-28
2023/06/17 11:53:03;;;;;;;3.85;3.50;;;;;;;;;;5032478;28;20209;-22
2023/06/17 11:55:31;;;;;;;3.90;3.60;;;;;;;;;;5022134;28;20237;-28
2023/06/17 11:58:00;;;;;;;4.20;3.88;;;;;;;;;;5013890;28;20242;-27
2023/06/17 12:00:28;;;;;;;3.78;3.47;;;;;;;;;;5014901;28;20209;-24
2023/06/17 12:02:56;;;;;;;4.10;3.75;;;;;;;;;;5013798;28;20559;-23
2023/06/17 12:05:27;;;;;;;4.20;3.80;;;;;;;;;;5019895;28;20226;-25
2023/06/17 12:07:54;;;;;;;4.25;3.78;;;;;;;;;;5030341;28;20196;-25
2023/06/17 12:10:21;;;;;;;4.82;3.80;;;;;;;;;;5025007;28;20214;-28
2023/06/17 12:12:48;;;;;;;5.47;3.78;;;;;;;;;;5025816;28;20567;-25
2023/06/17 12:15:17;;;;;;;4.40;3.70;;;;;;;;;;5034696;28;20301;-26
2023/06/17 12:17:45;;;;;;;4.03;3.67;;;;;;;;;;5029494;28;20237;-25
2023/06/17 12:20:15;;;;;;;3.55;3.25;;;;;;;;;;5026368;28;20255;-23
2023/06/17 12:22:42;;;;;;;4.03;3.55;;;;;;;;;;5031644;28;20209;-28
2023/06/17 12:25:11;;;;;;;4.90;3.50;;;;;;;;;;5019275;28;20234;-27
2023/06/17 12:27:38;;;;;;;5.07;3.80;;;;;;;;;;5016261;28;20219;-27
2023/06/17 12:30:05;;;;;;;4.93;3.90;;;;;;;;;;5013915;28;20243;-27
2023/06/17 12:32:35;;;;;;;3.30;3.00;;;;;;;;;;5013801;28;20224;-26
2023/06/17 12:35:02;;;;;;;4.13;3.65;;;;;;;;;;5027411;28;20476;-24
2023/06/17 12:37:31;;;;;;;4.18;3.78;;;;;;;;;;5033110;28;20206;-28
2023/06/17 12:40:00;;;;;;;4.18;3.63;;;;;;;;;;5018700;28;20257;-25
2023/06/17 12:42:34;;;;;;;7.53;3.55;;;;;;;;;;5014022;28;20573;-26
2023/06/17 12:45:01;;;;;;;2.92;2.72;;;;;;;;;;5026757;28;20232;-26
2023/06/17 12:47:29;;;;;;;5.00;3.25;;;;;;;;;;5028718;28;20295;-27
2023/06/17 12:49:57;;;;;;;4.05;3.65;;;;;;;;;;5015878;28;20885;-28
2023/06/17 12:52:25;;;;;;;4.90;4.50;;;;;;;;;;5028348;28;20213;-26
2023/06/17 12:54:58;;;;;;;5.13;3.75;;;;;;;;;;5024538;28;20230;-24
2023/06/17 12:57:25;;;;;;;3.72;3.42;;;;;;;;;;5020114;28;20261;-26
2023/06/17 12:59:52;;;;;;;6.45;3.90;;;;;;;;;;5033576;28;20833;-23
2023/06/17 13:02:19;;;;;;;4.32;3.92;;;;;;;;;;5028067;28;20213;-27
2023/06/17 13:04:58;;;;;;;4.63;3.88;;;;;;;;;;5030199;28;20230;-26
2023/06/17 13:07:34;;;;;;;3.90;3.58;;;;;;;;;;5032619;28;20190;-24
2023/06/17 13:10:01;;;;;;;4.15;3.75;;;;;;;;;;5016275;28;20231;-26
2023/06/17 13:12:29;;;;;;;4.55;4.15;;;;;;;;;;5013458;28;20210;-27
2023/06/17 13:14:56;;;;;;;5.97;3.88;;;;;;;;;;5013633;28;20202;-24
2023/06/17 13:17:24;;;;;;;3.72;3.42;;;;;;;;;;5013453;28;20207;-27
2023/06/17 13:19:51;;;;;;;3.83;3.50;;;;;;;;;;5017558;28;20226;-26
2023/06/17 13:22:20;;;;;;;4.07;3.15;;;;;;;;;;5024487;28;20222;-26
2023/06/17 13:24:48;;;;;;;4.10;3.70;;;;;;;;;;5017632;28;20223;-29
2023/06/17 13:27:18;;;;;;;3.88;3.35;;;;;;;;;;5016966;28;20720;-25
2023/06/17 13:29:46;;;;;;;4.10;3.70;;;;;;;;;;5030617;28;20218;-27
2023/06/17 13:32:13;;;;;;;3.58;3.35;;;;;;;;;;5031367;28;20676;-25
2023/06/17 13:34:40;;;;;;;4.38;3.63;;;;;;;;;;5013197;28;20225;-28
2023/06/17 13:37:07;;;;;;;4.45;3.63;;;;;;;;;;5028327;28;20212;-27
2023/06/17 13:39:35;;;;;;;8.57;3.50;;;;;;;;;;5013916;28;20234;-26
2023/06/17 13:42:03;;;;;;;4.03;3.40;;;;;;;;;;5024676;28;20194;-26
2023/06/17 13:44:30;;;;;;;4.72;3.00;;;;;;;;;;5020239;28;20570;-25
2023/06/17 13:46:57;;;;;;;3.63;3.35;;;;;;;;;;5018992;28;20214;-26
2023/06/17 13:49:24;;;;;;;3.70;3.40;;;;;;;;;;5024193;28;20705;-27
2023/06/17 13:51:52;;;;;;;3.78;3.45;;;;;;;;;;5029210;28;20282;-26
2023/06/17 13:54:20;;;;;;;5.07;3.75;;;;;;;;;;5019497;28;20680;-26
2023/06/17 13:56:49;;;;;;;8.63;3.72;;;;;;;;;;5027059;28;20207;-25
2023/06/17 13:59:16;;;;;;;3.53;3.22;;;;;;;;;;5016817;28;20260;-27
2023/06/17 14:01:43;;;;;;;5.93;3.80;;;;;;;;;;5024088;28;20210;-27
2023/06/17 14:04:10;;;;;;;3.97;3.17;;;;;;;;;;5013182;28;20203;-26
2023/06/17 14:06:37;;;;;;;3.45;3.15;;;;;;;;;;5018254;28;20218;-25
2023/06/17 14:09:05;;;;;;;3.92;3.40;;;;;;;;;;5019697;28;20696;-28
2023/06/17 14:11:32;;;;;;;4.78;2.92;;;;;;;;;;5024834;28;20615;-25
2023/06/17 14:14:01;;;;;;;4.50;3.35;;;;;;;;;;5020329;28;20672;-24
2023/06/17 14:16:28;;;;;;;4.85;3.35;;;;;;;;;;5012492;28;20214;-26
2023/06/17 14:18:55;;;;;;;8.52;3.33;;;;;;;;;;5015222;28;20234;-28
2023/06/17 14:21:28;;;;;;;5.18;3.30;;;;;;;;;;5026348;28;20202;-25
2023/06/17 14:24:04;;;;;;;3.70;3.40;;;;;;;;;;5016830;28;20640;-27
2023/06/17 14:26:32;;;;;;;5.68;3.65;;;;;;;;;;5019957;28;20198;-26
2023/06/17 14:29:01;;;;;;;3.40;3.08;;;;;;;;;;5011629;28;20238;-26
2023/06/17 14:31:28;;;;;;;3.70;3.20;;;;;;;;;;5012293;28;20669;-28
2023/06/17 14:33:55;;;;;;;3.30;3.00;;;;;;;;;;5018305;28;20213;-27
2023/06/17 14:36:23;;;;;;;3.63;3.25;;;;;;;;;;5019616;28;20290;-28
2023/06/17 14:38:50;;;;;;;4.15;3.42;;;;;;;;;;5017644;28;20318;-26
2023/06/17 14:41:17;;;;;;;3.50;3.20;;;;;;;;;;5018174;28;20221;-26
2023/06/17 14:43:44;;;;;;;4.03;3.60;;;;;;;;;;5023280;28;20206;-28
2023/06/17 14:46:13;;;;;;;3.85;3.10;;;;;;;;;;5031593;28;20230;-25
2023/06/17 14:48:40;;;;;;;3.67;3.38;;;;;;;;;;5027105;28;20286;-27